Flight Track Log - Related Links

Times and Time Zones

All times are in EDT time to prevent confusion due to time zone crossing. See the EJA929 flight status page for this flight to view local times or setup timezone preferences in your user account.

Time Position Orientation Groundspeed Altitude Reporting Facility
EDT Latitude Longitude Course Direction KTS MPH feet Rate Location/Type
Sat 12:38:33 PM 36.5786 -93.3836 312° West 272 313 7,000  Level Kansas City Center
Sat 12:39:35 PM 36.6061 -93.4772 290° West 292 336 9,000 1,839 Climbing Kansas City Center
Sat 12:40:37 PM 36.6353 -93.5922 288° West 296 341 10,800 1,500 Climbing Kansas City Center
Sat 12:41:39 PM 36.6644 -93.7078 287° West 341 392 12,100 1,306 Climbing Kansas City Center
Sat 12:42:00 PM 36.7455 -94.0780 289° West  Level FlightAware Approximate
Sat 12:42:41 PM 36.6917 -93.8214 287° West 354 407 13,500  Level Kansas City Center
Sat 12:43:42 PM 36.7219 -93.9428 287° West 363 418 14,800 1,268 Climbing Kansas City Center
Sat 12:44:44 PM 36.7531 -94.0686 287° West 374 430 16,100 1,306 Climbing Kansas City Center
Sat 12:45:46 PM 36.7897 -94.2194 287° West 379 436 17,500 1,113 Climbing Kansas City Center
Sat 12:46:48 PM 36.8211 -94.3508 287° West 392 451 18,400 1,210 Climbing Kansas City Center
Sat 12:47:50 PM 36.8553 -94.4794 288° West 392 451 20,000 1,161 Climbing Kansas City Center
Sat 12:48:52 PM 36.8939 -94.6053 291° West 390 449 20,800 871 Climbing Kansas City Center
Sat 12:49:54 PM 36.9333 -94.7358 291° West 397 457 21,800 919 Climbing Kansas City Center
Sat 12:50:56 PM 36.9725 -94.8672 290° West 403 464 22,700 919 Climbing Kansas City Center
Sat 12:51:58 PM 37.0200 -95.0272 290° West 409 471 23,700 968 Climbing Kansas City Center
Sat 12:53:00 PM 37.0608 -95.1631 291° West 416 479 24,700 1,016 Climbing Kansas City Center
Sat 12:54:02 PM 37.0997 -95.3008 290° West 419 482 25,800 968 Climbing Kansas City Center
Sat 12:55:04 PM 37.1242 -95.4439 282° West 421 484 26,700 823 Climbing Kansas City Center
Sat 12:56:06 PM 37.1489 -95.5892 282° West 423 487 27,500 823 Climbing Kansas City Center
Sat 12:57:08 PM 37.1736 -95.7367 282° West 428 493 28,400 1,452 Climbing Kansas City Center
Sat 12:58:10 PM 37.2028 -95.9139 282° West 432 497 30,500 1,500 Climbing Kansas City Center
Sat 12:59:12 PM 37.2264 -96.0578 282° West 429 494 31,500 1,065 Climbing Kansas City Center
Sat 01:00:14 PM 37.2497 -96.2011 282° West 425 489 32,700 1,220 Climbing Kansas City Center
Sat 01:01:15 PM 37.2581 -96.3475 274° West 424 488 34,000 1,366 Climbing Kansas City Center
Sat 01:02:17 PM 37.2583 -96.4933 270° West 422 486 35,500 1,226 Climbing Kansas City Center
Sat 01:04:21 PM 37.2906 -96.7808 278° West 424 488 37,800 1,194 Climbing Kansas City Center
Sat 01:05:23 PM 37.3194 -96.9544 282° West 423 487 39,200 1,016 Climbing Kansas City Center
Sat 01:06:25 PM 37.3433 -97.1022 282° West 427 491 39,900 387 Climbing Kansas City Center
Sat 01:07:27 PM 37.3683 -97.2553 282° West 434 499 40,000 48 Climbing Kansas City Center
Sat 01:08:29 PM 37.3936 -97.4156 281° West 459 528 40,000  Level Kansas City Center
Sat 01:09:31 PM 37.4197 -97.5800 281° West 473 544 40,000  Level Kansas City Center
Sat 01:10:33 PM 37.4456 -97.7456 281° West 479 551 40,000  Level Kansas City Center
Sat 01:11:35 PM 37.4711 -97.9125 281° West 481 554 40,000  Level Kansas City Center
Sat 01:12:37 PM 37.5025 -98.1125 281° West 483 556 40,000  Level Kansas City Center
Sat 01:13:39 PM 37.5275 -98.2797 281° West 482 555 40,000  Level Kansas City Center
Sat 01:14:41 PM 37.5539 -98.4450 281° West 479 551 40,000  Level Kansas City Center
Sat 01:15:44 PM 37.5778 -98.6100 280° West 479 551 40,000 48 Level Kansas City Center
Sat 01:16:46 PM 37.6028 -98.7753 281° West 477 549 40,100 290 Climbing Kansas City Center
Sat 01:17:48 PM 37.6242 -98.9353 280° West 467 537 40,600 484 Climbing Kansas City Center
Sat 01:18:50 PM 37.6478 -99.0972 280° West 467 537 41,100 435 Climbing Kansas City Center
Sat 01:19:52 PM 37.6706 -99.2572 280° West 465 535 41,500 484 Climbing Kansas City Center
Sat 01:20:54 PM 37.6975 -99.4469 280° West 460 529 42,100 532 Climbing Kansas City Center
Sat 01:21:56 PM 37.7200 -99.5944 281° West 461 531 42,600 435 Climbing Kansas City Center
Sat 01:22:58 PM 37.7450 -99.7722 280° West 463 533 43,000 194 Climbing Kansas City Center
Sat 01:24:00 PM 37.7664 -99.9242 280° West 462 532 43,000  Level Kansas City Center
Sat 01:25:02 PM 37.7917 -100.1061 280° West 468 539 43,000  Level Kansas City Center
Sat 01:26:04 PM 37.8122 -100.2614 280° West 469 540 43,000  Level Kansas City Center
Sat 01:27:06 PM 37.8378 -100.4397 280° West 467 537 43,000  Level Kansas City Center
Sat 01:28:08 PM 37.8583 -100.5928 280° West 464 534 43,000  Level Kansas City Center
Sat 01:29:10 PM 37.8814 -100.7719 279° West 465 535 43,000  Level Kansas City Center
Sat 01:30:12 PM 37.9008 -100.9222 279° West 459 528 43,000  Level Kansas City Center
Sat 01:31:14 PM 37.9214 -101.0981 278° West 458 527 43,000  Level Kansas City Center
Sat 01:32:16 PM 37.9444 -101.2758 279° West 460 529 43,000  Level Kansas City Center
Sat 01:33:18 PM 37.9625 -101.4278 279° West 459 528 43,000  Level Kansas City Center
Sat 01:34:20 PM 37.9819 -101.5825 279° West 464 534 43,000  Level Kansas City Center
Sat 01:35:22 PM 38.0028 -101.7625 278° West 464 534 43,000  Level Kansas City Center
Sat 01:36:24 PM 38.0219 -101.9164 279° West 463 533 43,000  Level Kansas City Center
Sat 01:37:26 PM 38.0439 -102.0986 279° West 467 537 43,000  Level Kansas City Center
Sat 01:38:28 PM 38.0622 -102.2561 278° West 470 541 43,000  Level Kansas City Center
Sat 01:39:30 PM 38.0833 -102.4389 278° West 471 542 43,000  Level Kansas City Center
Sat 01:41:00 PM 38.1108 -102.6758 278° West 474 545 43,000  Level Denver Center
Sat 01:42:02 PM 38.1311 -102.8592 278° West 474 545 43,000  Level Denver Center
Sat 01:43:04 PM 38.1481 -103.0197 278° West 480 552 43,000  Level Denver Center
Sat 01:44:06 PM 38.1669 -103.1894 278° West 474 545 43,000  Level Denver Center
Sat 01:45:08 PM 38.1869 -103.3711 278° West 469 540 43,000  Level Denver Center
Sat 01:46:10 PM 38.2031 -103.5236 278° West 460 529 43,000  Level Denver Center
Sat 01:47:12 PM 38.2219 -103.7033 278° West 461 531 43,000  Level Denver Center
Sat 01:48:14 PM 38.2372 -103.8556 277° West 456 525 43,000  Level Denver Center
Sat 01:49:16 PM 38.2547 -104.0311 277° West 450 518 43,000  Level Denver Center
Sat 01:50:18 PM 38.2703 -104.1803 278° West 447 514 43,000  Level Denver Center
Sat 01:51:20 PM 38.2875 -104.3536 277° West 444 511 43,000  Level Denver Center
Sat 01:52:22 PM 38.3069 -104.5008 280° West 444 511 43,000  Level Denver Center
Sat 01:53:24 PM 38.3394 -104.6642 284° West 450 518 43,000  Level Denver Center
Sat 01:54:27 PM 38.3692 -104.8189 284° West 450 518 43,000  Level Denver Center
Sat 01:55:29 PM 38.3994 -104.9725 284° West 449 517 43,000  Level Denver Center
Sat 01:56:31 PM 38.4283 -105.1275 283° West 449 517 43,000  Level Denver Center
Sat 01:57:33 PM 38.4639 -105.3144 284° West 452 520 43,000  Level Denver Center
Sat 01:58:35 PM 38.4933 -105.4700 284° West 451 519 43,000  Level Denver Center
Sat 01:59:37 PM 38.5222 -105.6275 283° West 454 522 43,000  Level Denver Center
Sat 02:00:39 PM 38.5511 -105.7847 283° West 455 524 43,000  Level Denver Center
Sat 02:01:41 PM 38.5839 -105.9653 283° West 460 529 43,000  Level Denver Center
Sat 02:02:43 PM 38.6114 -106.1172 283° West 459 528 43,000  Level Denver Center
Sat 02:03:45 PM 38.6422 -106.2892 283° West 462 532 43,000  Level Denver Center
Sat 02:04:47 PM 38.6714 -106.4497 283° West 462 532 43,000  Level Denver Center
Sat 02:05:49 PM 38.6997 -106.6108 283° West 463 533 43,000  Level Denver Center
Sat 02:06:51 PM 38.7272 -106.7744 282° West 466 536 43,000  Level Denver Center
Sat 02:07:53 PM 38.7553 -106.9386 282° West 469 540 43,000  Level Denver Center
Sat 02:08:56 PM 38.7833 -107.1039 282° West 472 543 43,000  Level Denver Center
Sat 02:09:58 PM 38.8161 -107.2928 283° West 478 550 43,000  Level Denver Center
Sat 02:11:00 PM 38.8425 -107.4514 282° West 476 548 43,000  Level Denver Center
Sat 02:12:02 PM 38.8733 -107.6381 282° West 479 551 43,000  Level Denver Center
Sat 02:13:04 PM 38.8997 -107.7986 282° West 479 551 43,000  Level Denver Center
Sat 02:14:06 PM 38.9311 -107.9861 282° West 480 552 43,000  Level Denver Center
Sat 02:15:08 PM 38.9564 -108.1464 282° West 478 550 43,000  Level Denver Center
Sat 02:16:10 PM 38.9856 -108.3328 281° West 475 547 43,000  Level Denver Center
Sat 02:17:11 PM 39.0119 -108.4969 282° West 484 557 43,000  Level Denver Center
Sat 02:18:13 PM 39.0378 -108.6631 281° West 489 563 43,000  Level Denver Center
Sat 02:19:15 PM 39.0633 -108.8522 280° West 481 554 43,000  Level Denver Center
Sat 02:20:17 PM 39.0767 -109.0164 276° West 480 552 43,000  Level Denver Center
Sat 02:21:19 PM 39.0914 -109.2092 276° West 484 557 43,000  Level Denver Center
Sat 02:22:21 PM 39.1050 -109.3753 276° West 486 559 43,000  Level Denver Center
Sat 02:23:24 PM 39.1189 -109.5658 275° West 478 550 43,000  Level Denver Center
Sat 02:24:23 PM 39.1317 -109.7328 276° West 484 557 43,000  Level Salt Lake Center
Sat 02:25:25 PM 39.1442 -109.8969 276° West 482 555 43,000  Level Salt Lake Center
Sat 02:26:27 PM 39.1583 -110.0908 275° West 485 558 43,000  Level Salt Lake Center
Sat 02:27:29 PM 39.1700 -110.2561 275° West 484 557 43,000  Level Salt Lake Center
Sat 02:28:31 PM 39.1839 -110.4500 275° West 486 559 43,000  Level Salt Lake Center
Sat 02:29:33 PM 39.1944 -110.6175 275° West 489 563 43,000  Level Salt Lake Center
Sat 02:30:35 PM 39.2058 -110.7856 275° West 490 564 43,000  Level Salt Lake Center
Sat 02:31:37 PM 39.2181 -110.9819 275° West 492 566 43,000  Level Salt Lake Center
Sat 02:32:40 PM 39.2275 -111.1514 274° West 495 570 43,000  Level Salt Lake Center
Sat 02:33:41 PM 39.2392 -111.3336 275° West 492 566 43,000  Level Salt Lake Center
Sat 02:34:43 PM 39.2503 -111.5028 275° West 489 563 43,000  Level Salt Lake Center
Sat 02:35:45 PM 39.2597 -111.7111 273° West 486 559 43,000  Level Salt Lake Center
Sat 02:36:47 PM 39.2703 -111.8869 274° West 493 567 43,000  Level Salt Lake Center
Sat 02:37:50 PM 39.2797 -112.0636 274° West 494 568 43,000  Level Salt Lake Center
Sat 02:38:52 PM 39.2897 -112.2386 274° West 493 567 43,000  Level Salt Lake Center
Sat 02:39:54 PM 39.2997 -112.4094 274° West 484 557 43,000  Level Salt Lake Center
Sat 02:40:56 PM 39.3061 -112.5825 273° West 483 556 43,000  Level Salt Lake Center
Sat 02:41:58 PM 39.3044 -112.7842 269° West 480 552 43,000  Level Salt Lake Center
Sat 02:43:00 PM 39.3058 -112.9575 271° West 482 555 43,000  Level Salt Lake Center
Sat 02:44:02 PM 39.3064 -113.1306 270° West 483 556 43,000  Level Salt Lake Center
Sat 02:45:04 PM 39.3069 -113.3039 270° West 485 558 43,000  Level Salt Lake Center
Sat 02:46:06 PM 39.3067 -113.4789 270° West 490 564 43,000  Level Salt Lake Center
Sat 02:47:08 PM 39.3072 -113.6883 270° West 489 563 43,000  Level Salt Lake Center
Sat 02:48:10 PM 39.3072 -113.8625 270° West 488 562 43,000  Level Salt Lake Center
Sat 02:49:12 PM 39.3053 -114.0397 269° West 494 568 43,000  Level Salt Lake Center
Sat 02:50:14 PM 39.3044 -114.2150 270° West 492 566 43,000  Level Salt Lake Center
Sat 02:51:16 PM 39.3014 -114.4167 269° West 503 579 43,000  Level Salt Lake Center
Sat 02:52:18 PM 39.2997 -114.5861 269° West 497 572 43,000  Level Salt Lake Center
Sat 02:53:20 PM 39.2978 -114.7861 269° West 498 573 43,000  Level Salt Lake Center
Sat 02:54:22 PM 39.2919 -114.9539 267° West 492 566 43,000  Level Salt Lake Center
Sat 02:55:24 PM 39.2794 -115.1511 265° West 493 567 43,000  Level Salt Lake Center
Sat 02:56:26 PM 39.2664 -115.3203 264° West 493 567 43,000  Level Salt Lake Center
Sat 02:57:28 PM 39.2578 -115.4886 266° West 491 565 43,000  Level Salt Lake Center
Sat 02:58:30 PM 39.2442 -115.6844 265° West 490 564 43,000  Level Salt Lake Center
Sat 02:59:32 PM 39.2325 -115.8517 265° West 489 563 43,000 -192 Level Salt Lake Center
Sat 03:00:35 PM 39.2197 -116.0467 265° West 489 563 42,600 -672 Descending Salt Lake Center
Sat 03:01:37 PM 39.2081 -116.2161 265° West 493 567 41,600 -1,016 Descending Salt Lake Center
Sat 03:02:39 PM 39.1933 -116.4058 264° West 479 551 40,500 -774 Descending Salt Lake Center
Sat 03:03:41 PM 39.1814 -116.5719 265° West 481 554 40,000 -242 Descending Salt Lake Center
Sat 03:04:43 PM 39.1669 -116.7664 265° West 486 559 40,000  Level Salt Lake Center
Sat 03:05:45 PM 39.1536 -116.9328 264° West 486 559 40,000  Level Salt Lake Center
Sat 03:06:47 PM 39.1414 -117.0997 265° West 486 559 40,000  Level Salt Lake Center
Sat 03:07:49 PM 39.1253 -117.2933 264° West 486 559 40,000  Level Salt Lake Center
Sat 03:08:51 PM 39.1111 -117.4597 264° West 490 564 40,000 -484 Level Salt Lake Center
Sat 03:09:53 PM 39.0967 -117.6311 264° West 484 557 39,000 -1,065 Descending Salt Lake Center
Sat 03:10:55 PM 39.0797 -117.8347 264° West 477 549 37,800 -1,015 Descending Salt Lake Center
Sat 03:12:03 PM 39.0650 -118.0083 264° West 484 557 36,800 -831 Descending Oakland Center
Sat 03:13:05 PM 39.0494 -118.1833 264° West 489 563 36,000 -390 Descending Oakland Center
Sat 03:14:06 PM 39.0333 -118.3594 263° West 492 566 36,000 -293 Level Oakland Center
Sat 03:15:08 PM 39.0175 -118.5350 263° West 489 563 35,400 -878 Descending Oakland Center
Sat 03:16:09 PM 38.9972 -118.7439 263° West 487 560 34,200 -1,073 Descending Oakland Center
Sat 03:17:11 PM 38.9808 -118.9200 263° West 491 565 33,200 -968 Descending Oakland Center
Sat 03:18:13 PM 38.9644 -119.0975 263° West 496 571 32,200 -1,024 Descending Oakland Center
Sat 03:19:14 PM 38.9461 -119.2739 262° West 496 571 31,100 -1,220 Descending Oakland Center
Sat 03:20:16 PM 38.9292 -119.4522 263° West 502 578 29,700 -1,403 Descending Oakland Center
Sat 03:21:18 PM 38.9128 -119.6297 263° West 501 577 28,200 -1,512 Descending Oakland Center
Sat 03:22:19 PM 38.9139 -119.8053 271° West 493 567 26,600 -1,512 Descending Oakland Center
Sat 03:23:21 PM 38.9236 -119.9772 274° West 486 559 25,100 -1,452 Descending Oakland Center
Sat 03:24:23 PM 38.9397 -120.1464 277° West 479 551 23,600 -1,610 Descending Oakland Center
Sat 03:25:24 PM 38.9528 -120.3453 275° West 467 537 21,800 -1,610 Descending Oakland Center
Sat 03:26:26 PM 38.9631 -120.5061 275° West 456 525 20,300 -1,561 Descending Oakland Center
Sat 03:27:27 PM 38.9722 -120.6622 274° West 443 510 18,600 -1,707 Descending Oakland Center
Sat 03:28:29 PM 38.9817 -120.8169 275° West 438 504 16,800 -1,790 Descending Oakland Center
Sat 03:29:31 PM 38.9906 -120.9675 274° West 427 491 14,900 -1,805 Descending Oakland Center
Sat 03:30:32 PM 38.9697 -121.0886 258° West 353 406 13,100 -1,800 Descending Oakland Center
Sat 03:31:21 PM 38.9500 -121.1833 255° West 305 351 11,600 -1,982 Descending Northern Cal TRACON
Sat 03:32:21 PM 38.9167 -121.2833 247° West 294 338 9,500 -1,900 Descending Northern Cal TRACON
Sat 03:33:21 PM 38.9000 -121.3833 258° West 280 322 7,800 -1,983 Descending Northern Cal TRACON
Sat 03:34:22 PM 38.8833 -121.4833 258° West 268 308 5,500 -1,736 Descending Northern Cal TRACON
Sat 03:35:22 PM 38.8833 -121.5667 270° West 229 264 4,300 -1,350 Descending Northern Cal TRACON
Sat 03:36:22 PM 38.8500 -121.6000 218° Southwest 215 247 2,800 -1,250 Descending Northern Cal TRACON
Sat 03:37:22 PM 38.8000 -121.6000 180° South 176 203 1,800 -900 Descending Northern Cal TRACON
Sat 03:38:22 PM 38.7500 -121.6000 180° South 144 166 1,000 -750 Descending Northern Cal TRACON
Sat 03:39:22 PM 38.7167 -121.6000 180° South 129 148 300 -700 Descending Northern Cal TRACON
Sat 03:41:00 PM 38.6954 -121.5908 176° South  Level Estimated

Login

Don't have an account? Register now (free) for customized features, flight alerts, and more!